sensor_id;sensor_type;location;lat;lon;timestamp;temperature;humidity
3628;DHT22;1830;49.000;12.074;2023-05-16T00:00:01;11.00;99.90
3628;DHT22;1830;49.000;12.074;2023-05-16T00:02:31;11.00;99.90
3628;DHT22;1830;49.000;12.074;2023-05-16T00:04:59;11.00;99.90
3628;DHT22;1830;49.000;12.074;2023-05-16T00:07:25;10.90;99.90
3628;DHT22;1830;49.000;12.074;2023-05-16T00:09:52;10.90;99.90
3628;DHT22;1830;49.000;12.074;2023-05-16T00:12:19;10.80;99.90
3628;DHT22;1830;49.000;12.074;2023-05-16T00:14:47;10.70;99.90
3628;DHT22;1830;49.000;12.074;2023-05-16T00:17:14;10.80;99.90
3628;DHT22;1830;49.000;12.074;2023-05-16T00:19:42;10.70;99.90
3628;DHT22;1830;49.000;12.074;2023-05-16T00:22:10;10.70;99.90
3628;DHT22;1830;49.000;12.074;2023-05-16T00:24:37;10.70;99.90
3628;DHT22;1830;49.000;12.074;2023-05-16T00:27:04;10.70;99.90
3628;DHT22;1830;49.000;12.074;2023-05-16T00:29:31;10.60;99.90
3628;DHT22;1830;49.000;12.074;2023-05-16T00:31:58;10.60;99.90
3628;DHT22;1830;49.000;12.074;2023-05-16T00:34:24;10.60;99.90
3628;DHT22;1830;49.000;12.074;2023-05-16T00:36:51;10.50;99.90
3628;DHT22;1830;49.000;12.074;2023-05-16T00:39:19;10.50;99.90
3628;DHT22;1830;49.000;12.074;2023-05-16T00:41:46;10.50;99.90
3628;DHT22;1830;49.000;12.074;2023-05-16T00:44:13;10.40;99.90
3628;DHT22;1830;49.000;12.074;2023-05-16T00:46:39;10.30;99.90
3628;DHT22;1830;49.000;12.074;2023-05-16T00:49:07;10.30;99.90
3628;DHT22;1830;49.000;12.074;2023-05-16T00:51:35;10.30;99.90
3628;DHT22;1830;49.000;12.074;2023-05-16T00:54:04;10.30;99.90
3628;DHT22;1830;49.000;12.074;2023-05-16T00:56:32;10.30;99.90
3628;DHT22;1830;49.000;12.074;2023-05-16T00:59:00;10.20;99.90
3628;DHT22;1830;49.000;12.074;2023-05-16T01:01:28;10.20;99.90
3628;DHT22;1830;49.000;12.074;2023-05-16T01:03:55;10.20;99.90
3628;DHT22;1830;49.000;12.074;2023-05-16T01:06:22;10.10;99.90
3628;DHT22;1830;49.000;12.074;2023-05-16T01:08:49;10.10;99.90
3628;DHT22;1830;49.000;12.074;2023-05-16T01:11:21;10.00;99.90
3628;DHT22;1830;49.000;12.074;2023-05-16T01:13:59;10.00;99.90
3628;DHT22;1830;49.000;12.074;2023-05-16T01:16:38;10.00;99.90
3628;DHT22;1830;49.000;12.074;2023-05-16T01:19:13;10.00;99.90
3628;DHT22;1830;49.000;12.074;2023-05-16T01:21:48;10.00;99.90
3628;DHT22;1830;49.000;12.074;2023-05-16T01:24:26;10.00;99.90
3628;DHT22;1830;49.000;12.074;2023-05-16T01:26:55;10.00;99.90
3628;DHT22;1830;49.000;12.074;2023-05-16T01:29:22;10.00;99.90
3628;DHT22;1830;49.000;12.074;2023-05-16T01:31:49;10.00;99.90
3628;DHT22;1830;49.000;12.074;2023-05-16T01:34:16;10.00;99.90
3628;DHT22;1830;49.000;12.074;2023-05-16T01:36:49;10.00;99.90
3628;DHT22;1830;49.000;12.074;2023-05-16T01:39:21;10.10;99.90
3628;DHT22;1830;49.000;12.074;2023-05-16T01:41:57;10.10;99.90
3628;DHT22;1830;49.000;12.074;2023-05-16T01:44:32;10.20;99.90
3628;DHT22;1830;49.000;12.074;2023-05-16T01:47:03;10.20;99.90
3628;DHT22;1830;49.000;12.074;2023-05-16T01:49:35;10.20;99.90
3628;DHT22;1830;49.000;12.074;2023-05-16T01:52:07;10.20;99.90
3628;DHT22;1830;49.000;12.074;2023-05-16T01:54:37;10.20;99.90
3628;DHT22;1830;49.000;12.074;2023-05-16T01:57:07;10.20;99.90
3628;DHT22;1830;49.000;12.074;2023-05-16T01:59:35;10.20;99.90
3628;DHT22;1830;49.000;12.074;2023-05-16T02:02:02;10.20;99.90
3628;DHT22;1830;49.000;12.074;2023-05-16T02:04:29;10.20;99.90
3628;DHT22;1830;49.000;12.074;2023-05-16T02:06:56;10.20;99.90
3628;DHT22;1830;49.000;12.074;2023-05-16T02:09:25;10.20;99.90
3628;DHT22;1830;49.000;12.074;2023-05-16T02:11:51;10.20;99.90
3628;DHT22;1830;49.000;12.074;2023-05-16T02:14:19;10.20;99.90
3628;DHT22;1830;49.000;12.074;2023-05-16T02:16:47;10.20;99.90
3628;DHT22;1830;49.000;12.074;2023-05-16T02:19:14;10.20;99.90
3628;DHT22;1830;49.000;12.074;2023-05-16T02:21:40;10.20;99.90
3628;DHT22;1830;49.000;12.074;2023-05-16T02:24:09;10.10;99.90
3628;DHT22;1830;49.000;12.074;2023-05-16T02:26:36;10.10;99.90
3628;DHT22;1830;49.000;12.074;2023-05-16T02:29:04;10.10;99.90
3628;DHT22;1830;49.000;12.074;2023-05-16T02:31:32;10.10;99.90
3628;DHT22;1830;49.000;12.074;2023-05-16T02:33:59;10.10;99.90
3628;DHT22;1830;49.000;12.074;2023-05-16T02:36:27;10.10;99.90
3628;DHT22;1830;49.000;12.074;2023-05-16T02:38:54;10.10;99.90
3628;DHT22;1830;49.000;12.074;2023-05-16T02:41:20;10.10;99.90
3628;DHT22;1830;49.000;12.074;2023-05-16T02:43:47;10.00;99.90
3628;DHT22;1830;49.000;12.074;2023-05-16T02:46:23;10.00;99.90
3628;DHT22;1830;49.000;12.074;2023-05-16T02:48:53;10.10;99.90
3628;DHT22;1830;49.000;12.074;2023-05-16T02:51:20;10.10;99.90
3628;DHT22;1830;49.000;12.074;2023-05-16T02:53:48;10.10;99.90
3628;DHT22;1830;49.000;12.074;2023-05-16T02:56:15;10.10;99.90
3628;DHT22;1830;49.000;12.074;2023-05-16T02:58:42;10.20;99.90
3628;DHT22;1830;49.000;12.074;2023-05-16T03:01:09;10.10;99.90
3628;DHT22;1830;49.000;12.074;2023-05-16T03:03:36;10.10;99.90
3628;DHT22;1830;49.000;12.074;2023-05-16T03:06:04;10.10;99.90
3628;DHT22;1830;49.000;12.074;2023-05-16T03:08:31;10.10;99.90
3628;DHT22;1830;49.000;12.074;2023-05-16T03:10:58;10.10;99.90
3628;DHT22;1830;49.000;12.074;2023-05-16T03:13:25;10.10;99.90
3628;DHT22;1830;49.000;12.074;2023-05-16T03:15:53;10.10;99.90
3628;DHT22;1830;49.000;12.074;2023-05-16T03:18:19;10.10;99.90
3628;DHT22;1830;49.000;12.074;2023-05-16T03:20:46;10.10;99.90
3628;DHT22;1830;49.000;12.074;2023-05-16T03:23:14;10.20;99.90
3628;DHT22;1830;49.000;12.074;2023-05-16T03:25:41;10.10;99.90
3628;DHT22;1830;49.000;12.074;2023-05-16T03:28:11;10.10;99.90
3628;DHT22;1830;49.000;12.074;2023-05-16T03:30:38;10.10;99.90
3628;DHT22;1830;49.000;12.074;2023-05-16T03:33:06;10.10;99.90
3628;DHT22;1830;49.000;12.074;2023-05-16T03:35:33;10.10;99.90
3628;DHT22;1830;49.000;12.074;2023-05-16T03:38:00;10.10;99.90
3628;DHT22;1830;49.000;12.074;2023-05-16T03:40:29;10.10;99.90
3628;DHT22;1830;49.000;12.074;2023-05-16T03:42:55;10.10;99.90
3628;DHT22;1830;49.000;12.074;2023-05-16T03:45:22;10.10;99.90
3628;DHT22;1830;49.000;12.074;2023-05-16T03:47:49;10.10;99.90
3628;DHT22;1830;49.000;12.074;2023-05-16T03:50:16;10.10;99.90
3628;DHT22;1830;49.000;12.074;2023-05-16T03:52:43;10.20;99.90
3628;DHT22;1830;49.000;12.074;2023-05-16T03:55:09;10.10;99.90
3628;DHT22;1830;49.000;12.074;2023-05-16T03:57:41;10.10;99.90
3628;DHT22;1830;49.000;12.074;2023-05-16T04:00:09;10.10;99.90
3628;DHT22;1830;49.000;12.074;2023-05-16T04:02:36;10.10;99.90
3628;DHT22;1830;49.000;12.074;2023-05-16T04:05:05;10.10;99.90
3628;DHT22;1830;49.000;12.074;2023-05-16T04:07:32;10.10;99.90
3628;DHT22;1830;49.000;12.074;2023-05-16T04:09:59;10.20;99.90
3628;DHT22;1830;49.000;12.074;2023-05-16T04:12:26;10.20;99.90
3628;DHT22;1830;49.000;12.074;2023-05-16T04:14:55;10.10;99.90
3628;DHT22;1830;49.000;12.074;2023-05-16T04:17:21;10.20;99.90
3628;DHT22;1830;49.000;12.074;2023-05-16T04:19:48;10.10;99.90
3628;DHT22;1830;49.000;12.074;2023-05-16T04:22:15;10.20;99.90
3628;DHT22;1830;49.000;12.074;2023-05-16T04:24:42;10.10;99.90
3628;DHT22;1830;49.000;12.074;2023-05-16T04:27:09;10.10;99.90
3628;DHT22;1830;49.000;12.074;2023-05-16T04:29:36;10.20;99.90
3628;DHT22;1830;49.000;12.074;2023-05-16T04:32:05;10.30;99.90
3628;DHT22;1830;49.000;12.074;2023-05-16T04:34:33;10.30;99.90
3628;DHT22;1830;49.000;12.074;2023-05-16T04:37:02;10.30;99.90
3628;DHT22;1830;49.000;12.074;2023-05-16T04:39:29;10.30;99.90
3628;DHT22;1830;49.000;12.074;2023-05-16T04:41:56;10.20;99.90
3628;DHT22;1830;49.000;12.074;2023-05-16T04:44:24;10.20;99.90
3628;DHT22;1830;49.000;12.074;2023-05-16T04:46:51;10.10;99.90
3628;DHT22;1830;49.000;12.074;2023-05-16T04:49:20;10.10;99.90
3628;DHT22;1830;49.000;12.074;2023-05-16T04:51:47;10.10;99.90
3628;DHT22;1830;49.000;12.074;2023-05-16T04:54:14;10.20;99.90
3628;DHT22;1830;49.000;12.074;2023-05-16T04:56:41;10.20;99.90
3628;DHT22;1830;49.000;12.074;2023-05-16T04:59:08;10.20;99.90
3628;DHT22;1830;49.000;12.074;2023-05-16T05:01:35;10.20;99.90
3628;DHT22;1830;49.000;12.074;2023-05-16T05:04:02;10.20;99.90
3628;DHT22;1830;49.000;12.074;2023-05-16T05:06:31;10.30;99.90
3628;DHT22;1830;49.000;12.074;2023-05-16T05:08:58;10.30;99.90
3628;DHT22;1830;49.000;12.074;2023-05-16T05:11:24;10.30;99.90
3628;DHT22;1830;49.000;12.074;2023-05-16T05:13:51;10.40;99.90
3628;DHT22;1830;49.000;12.074;2023-05-16T05:16:18;10.40;99.90
3628;DHT22;1830;49.000;12.074;2023-05-16T05:18:45;10.50;99.90
3628;DHT22;1830;49.000;12.074;2023-05-16T05:21:12;10.40;99.90
3628;DHT22;1830;49.000;12.074;2023-05-16T05:23:40;10.60;99.90
3628;DHT22;1830;49.000;12.074;2023-05-16T05:26:07;10.60;99.90
3628;DHT22;1830;49.000;12.074;2023-05-16T05:28:34;10.70;99.90
3628;DHT22;1830;49.000;12.074;2023-05-16T05:31:02;10.80;99.90
3628;DHT22;1830;49.000;12.074;2023-05-16T05:33:29;10.80;99.90
3628;DHT22;1830;49.000;12.074;2023-05-16T05:35:56;10.90;99.90
3628;DHT22;1830;49.000;12.074;2023-05-16T05:38:23;10.90;99.90
3628;DHT22;1830;49.000;12.074;2023-05-16T05:40:52;11.00;99.90
3628;DHT22;1830;49.000;12.074;2023-05-16T05:43:18;11.00;99.90
3628;DHT22;1830;49.000;12.074;2023-05-16T05:45:45;11.00;99.90
3628;DHT22;1830;49.000;12.074;2023-05-16T05:48:12;11.10;99.90
3628;DHT22;1830;49.000;12.074;2023-05-16T05:50:39;11.20;99.90
3628;DHT22;1830;49.000;12.074;2023-05-16T05:53:06;11.10;99.90
3628;DHT22;1830;49.000;12.074;2023-05-16T05:55:33;11.10;99.90
3628;DHT22;1830;49.000;12.074;2023-05-16T05:58:01;11.20;99.90
3628;DHT22;1830;49.000;12.074;2023-05-16T06:00:28;11.30;99.90
3628;DHT22;1830;49.000;12.074;2023-05-16T06:02:54;11.30;99.90
3628;DHT22;1830;49.000;12.074;2023-05-16T06:05:21;11.30;99.90
3628;DHT22;1830;49.000;12.074;2023-05-16T06:07:49;11.30;99.90
3628;DHT22;1830;49.000;12.074;2023-05-16T06:10:16;11.30;99.90
3628;DHT22;1830;49.000;12.074;2023-05-16T06:12:42;11.30;99.90
3628;DHT22;1830;49.000;12.074;2023-05-16T06:15:11;11.40;99.90
3628;DHT22;1830;49.000;12.074;2023-05-16T06:17:38;11.40;99.90
3628;DHT22;1830;49.000;12.074;2023-05-16T06:20:06;11.40;99.90
3628;DHT22;1830;49.000;12.074;2023-05-16T06:22:33;11.40;99.90
3628;DHT22;1830;49.000;12.074;2023-05-16T06:24:59;11.40;99.90
3628;DHT22;1830;49.000;12.074;2023-05-16T06:27:26;11.40;99.90
3628;DHT22;1830;49.000;12.074;2023-05-16T06:29:53;11.50;99.90
3628;DHT22;1830;49.000;12.074;2023-05-16T06:32:21;11.50;99.90
3628;DHT22;1830;49.000;12.074;2023-05-16T06:34:48;11.50;99.90
3628;DHT22;1830;49.000;12.074;2023-05-16T06:37:15;11.60;99.90
3628;DHT22;1830;49.000;12.074;2023-05-16T06:39:42;11.60;99.90
3628;DHT22;1830;49.000;12.074;2023-05-16T06:42:09;11.70;99.90
3628;DHT22;1830;49.000;12.074;2023-05-16T06:44:37;11.80;99.90
3628;DHT22;1830;49.000;12.074;2023-05-16T06:47:04;11.90;99.90
3628;DHT22;1830;49.000;12.074;2023-05-16T06:49:32;11.90;99.90
3628;DHT22;1830;49.000;12.074;2023-05-16T06:51:59;12.00;99.90
3628;DHT22;1830;49.000;12.074;2023-05-16T06:54:26;12.10;99.90
3628;DHT22;1830;49.000;12.074;2023-05-16T06:56:52;12.10;99.90
3628;DHT22;1830;49.000;12.074;2023-05-16T06:59:19;12.20;99.90
3628;DHT22;1830;49.000;12.074;2023-05-16T07:01:46;12.20;99.90
3628;DHT22;1830;49.000;12.074;2023-05-16T07:04:13;12.30;99.90
3628;DHT22;1830;49.000;12.074;2023-05-16T07:06:41;12.30;99.90
3628;DHT22;1830;49.000;12.074;2023-05-16T07:09:08;12.30;99.90
3628;DHT22;1830;49.000;12.074;2023-05-16T07:11:34;12.30;99.90
3628;DHT22;1830;49.000;12.074;2023-05-16T07:14:01;12.40;99.90
3628;DHT22;1830;49.000;12.074;2023-05-16T07:16:28;12.40;99.90
3628;DHT22;1830;49.000;12.074;2023-05-16T07:18:55;12.60;99.90
3628;DHT22;1830;49.000;12.074;2023-05-16T07:21:22;12.60;99.90
3628;DHT22;1830;49.000;12.074;2023-05-16T07:23:50;12.70;99.90
3628;DHT22;1830;49.000;12.074;2023-05-16T07:26:17;12.80;99.90
3628;DHT22;1830;49.000;12.074;2023-05-16T07:28:46;12.90;99.90
3628;DHT22;1830;49.000;12.074;2023-05-16T07:31:13;13.00;99.90
3628;DHT22;1830;49.000;12.074;2023-05-16T07:33:41;13.20;99.90
3628;DHT22;1830;49.000;12.074;2023-05-16T07:36:08;13.30;99.90
3628;DHT22;1830;49.000;12.074;2023-05-16T07:38:35;13.40;99.90
3628;DHT22;1830;49.000;12.074;2023-05-16T07:41:03;13.50;99.90
3628;DHT22;1830;49.000;12.074;2023-05-16T07:43:29;13.60;99.90
3628;DHT22;1830;49.000;12.074;2023-05-16T07:45:56;13.70;99.90
3628;DHT22;1830;49.000;12.074;2023-05-16T07:48:23;13.80;99.90
3628;DHT22;1830;49.000;12.074;2023-05-16T07:50:50;13.80;99.90
3628;DHT22;1830;49.000;12.074;2023-05-16T07:53:18;13.90;99.90
3628;DHT22;1830;49.000;12.074;2023-05-16T07:55:44;14.00;99.90
3628;DHT22;1830;49.000;12.074;2023-05-16T07:58:13;14.00;99.90
3628;DHT22;1830;49.000;12.074;2023-05-16T08:00:39;14.00;99.90
3628;DHT22;1830;49.000;12.074;2023-05-16T08:03:06;14.00;99.90
3628;DHT22;1830;49.000;12.074;2023-05-16T08:05:33;14.10;99.90
3628;DHT22;1830;49.000;12.074;2023-05-16T08:08:00;14.10;99.90
3628;DHT22;1830;49.000;12.074;2023-05-16T08:10:27;14.20;99.90
3628;DHT22;1830;49.000;12.074;2023-05-16T08:13:02;14.30;99.90
3628;DHT22;1830;49.000;12.074;2023-05-16T08:15:31;14.40;99.90
3628;DHT22;1830;49.000;12.074;2023-05-16T08:17:58;14.40;99.90
3628;DHT22;1830;49.000;12.074;2023-05-16T08:20:25;14.40;99.90
3628;DHT22;1830;49.000;12.074;2023-05-16T08:22:52;14.40;99.90
3628;DHT22;1830;49.000;12.074;2023-05-16T08:25:20;14.30;99.90
3628;DHT22;1830;49.000;12.074;2023-05-16T08:27:48;14.40;99.90
3628;DHT22;1830;49.000;12.074;2023-05-16T08:30:15;14.40;99.90
3628;DHT22;1830;49.000;12.074;2023-05-16T08:32:43;14.40;99.90
3628;DHT22;1830;49.000;12.074;2023-05-16T08:35:10;14.40;99.90
3628;DHT22;1830;49.000;12.074;2023-05-16T08:37:37;14.50;99.90
3628;DHT22;1830;49.000;12.074;2023-05-16T08:40:06;14.60;99.90
3628;DHT22;1830;49.000;12.074;2023-05-16T08:42:35;14.80;99.90
3628;DHT22;1830;49.000;12.074;2023-05-16T08:45:02;14.80;99.90
3628;DHT22;1830;49.000;12.074;2023-05-16T08:47:30;14.80;99.90
3628;DHT22;1830;49.000;12.074;2023-05-16T08:50:02;14.90;99.90
3628;DHT22;1830;49.000;12.074;2023-05-16T08:52:30;15.00;99.90
3628;DHT22;1830;49.000;12.074;2023-05-16T08:55:01;15.00;99.90
3628;DHT22;1830;49.000;12.074;2023-05-16T08:57:30;15.10;99.90
3628;DHT22;1830;49.000;12.074;2023-05-16T08:59:58;15.20;99.90
3628;DHT22;1830;49.000;12.074;2023-05-16T09:02:25;15.30;99.90
3628;DHT22;1830;49.000;12.074;2023-05-16T09:04:53;15.40;99.90
3628;DHT22;1830;49.000;12.074;2023-05-16T09:07:23;15.50;99.90
3628;DHT22;1830;49.000;12.074;2023-05-16T09:09:50;15.60;99.90
3628;DHT22;1830;49.000;12.074;2023-05-16T09:12:19;15.60;99.90
3628;DHT22;1830;49.000;12.074;2023-05-16T09:14:46;15.70;99.90
3628;DHT22;1830;49.000;12.074;2023-05-16T09:17:13;15.70;99.90
3628;DHT22;1830;49.000;12.074;2023-05-16T09:19:41;15.60;99.90
3628;DHT22;1830;49.000;12.074;2023-05-16T09:22:10;15.70;99.90
3628;DHT22;1830;49.000;12.074;2023-05-16T09:24:42;15.60;99.90
3628;DHT22;1830;49.000;12.074;2023-05-16T09:27:11;15.70;99.90
3628;DHT22;1830;49.000;12.074;2023-05-16T09:29:39;15.70;99.90
3628;DHT22;1830;49.000;12.074;2023-05-16T09:32:11;15.80;99.90
3628;DHT22;1830;49.000;12.074;2023-05-16T09:34:41;15.90;99.90
3628;DHT22;1830;49.000;12.074;2023-05-16T09:37:09;16.00;99.90
3628;DHT22;1830;49.000;12.074;2023-05-16T09:39:39;16.00;99.90
3628;DHT22;1830;49.000;12.074;2023-05-16T09:42:11;16.10;99.90
3628;DHT22;1830;49.000;12.074;2023-05-16T09:44:40;16.10;99.90
3628;DHT22;1830;49.000;12.074;2023-05-16T09:47:11;16.10;99.90
3628;DHT22;1830;49.000;12.074;2023-05-16T09:50:10;16.10;99.90
3628;DHT22;1830;49.000;12.074;2023-05-16T09:52:39;16.10;99.90
3628;DHT22;1830;49.000;12.074;2023-05-16T09:55:36;16.00;99.90
3628;DHT22;1830;49.000;12.074;2023-05-16T09:58:17;16.00;99.90
3628;DHT22;1830;49.000;12.074;2023-05-16T10:00:44;16.00;99.90
3628;DHT22;1830;49.000;12.074;2023-05-16T10:03:12;16.00;99.90
3628;DHT22;1830;49.000;12.074;2023-05-16T10:05:53;16.00;99.90
3628;DHT22;1830;49.000;12.074;2023-05-16T10:08:22;16.00;99.90
3628;DHT22;1830;49.000;12.074;2023-05-16T10:10:51;15.90;99.90
3628;DHT22;1830;49.000;12.074;2023-05-16T10:13:31;15.80;99.90
3628;DHT22;1830;49.000;12.074;2023-05-16T10:15:59;15.70;99.90
3628;DHT22;1830;49.000;12.074;2023-05-16T10:18:29;15.60;99.90
3628;DHT22;1830;49.000;12.074;2023-05-16T10:20:58;15.60;99.90
3628;DHT22;1830;49.000;12.074;2023-05-16T10:23:27;15.50;99.90
3628;DHT22;1830;49.000;12.074;2023-05-16T10:25:55;15.50;99.90
3628;DHT22;1830;49.000;12.074;2023-05-16T10:28:28;15.40;99.90
3628;DHT22;1830;49.000;12.074;2023-05-16T10:31:06;15.30;99.90
3628;DHT22;1830;49.000;12.074;2023-05-16T10:33:35;15.20;99.90
3628;DHT22;1830;49.000;12.074;2023-05-16T10:36:04;15.00;99.90
3628;DHT22;1830;49.000;12.074;2023-05-16T10:38:32;14.90;99.90
3628;DHT22;1830;49.000;12.074;2023-05-16T10:41:02;14.60;99.90
3628;DHT22;1830;49.000;12.074;2023-05-16T10:43:30;14.50;99.90
3628;DHT22;1830;49.000;12.074;2023-05-16T10:46:01;14.50;99.90
3628;DHT22;1830;49.000;12.074;2023-05-16T10:48:29;14.50;99.90
3628;DHT22;1830;49.000;12.074;2023-05-16T10:50:57;14.40;99.90
3628;DHT22;1830;49.000;12.074;2023-05-16T10:53:29;14.30;99.90
3628;DHT22;1830;49.000;12.074;2023-05-16T10:56:07;14.30;99.90
3628;DHT22;1830;49.000;12.074;2023-05-16T10:58:54;14.30;99.90
3628;DHT22;1830;49.000;12.074;2023-05-16T11:01:22;14.20;99.90
3628;DHT22;1830;49.000;12.074;2023-05-16T11:04:07;14.10;99.90
3628;DHT22;1830;49.000;12.074;2023-05-16T11:06:43;14.00;99.90
3628;DHT22;1830;49.000;12.074;2023-05-16T11:09:24;13.90;99.90
3628;DHT22;1830;49.000;12.074;2023-05-16T11:11:57;13.80;99.90
3628;DHT22;1830;49.000;12.074;2023-05-16T11:14:27;13.70;99.90
3628;DHT22;1830;49.000;12.074;2023-05-16T11:17:00;13.60;99.90
3628;DHT22;1830;49.000;12.074;2023-05-16T11:19:30;13.30;99.90
3628;DHT22;1830;49.000;12.074;2023-05-16T11:22:07;13.30;99.90
3628;DHT22;1830;49.000;12.074;2023-05-16T11:24:35;13.30;99.90
3628;DHT22;1830;49.000;12.074;2023-05-16T11:27:03;13.30;99.90
3628;DHT22;1830;49.000;12.074;2023-05-16T11:29:33;13.20;99.90
3628;DHT22;1830;49.000;12.074;2023-05-16T11:32:02;13.30;99.90
3628;DHT22;1830;49.000;12.074;2023-05-16T11:34:29;13.20;99.90
3628;DHT22;1830;49.000;12.074;2023-05-16T11:36:56;13.30;99.90
3628;DHT22;1830;49.000;12.074;2023-05-16T11:39:24;13.20;99.90
3628;DHT22;1830;49.000;12.074;2023-05-16T11:41:52;13.10;99.90
3628;DHT22;1830;49.000;12.074;2023-05-16T11:44:19;13.00;99.90
3628;DHT22;1830;49.000;12.074;2023-05-16T11:46:47;12.80;99.90
3628;DHT22;1830;49.000;12.074;2023-05-16T11:49:14;13.00;99.90
3628;DHT22;1830;49.000;12.074;2023-05-16T11:51:41;13.10;99.90
3628;DHT22;1830;49.000;12.074;2023-05-16T11:54:09;13.20;99.90
3628;DHT22;1830;49.000;12.074;2023-05-16T11:56:38;13.00;99.90
3628;DHT22;1830;49.000;12.074;2023-05-16T11:59:06;13.00;99.90
3628;DHT22;1830;49.000;12.074;2023-05-16T12:01:33;13.10;99.90
3628;DHT22;1830;49.000;12.074;2023-05-16T12:04:07;13.20;99.90
3628;DHT22;1830;49.000;12.074;2023-05-16T12:06:34;13.20;99.90
3628;DHT22;1830;49.000;12.074;2023-05-16T12:09:02;13.30;99.90
3628;DHT22;1830;49.000;12.074;2023-05-16T12:11:36;13.30;99.90
3628;DHT22;1830;49.000;12.074;2023-05-16T12:14:03;13.40;99.90
3628;DHT22;1830;49.000;12.074;2023-05-16T12:16:30;13.40;99.90
3628;DHT22;1830;49.000;12.074;2023-05-16T12:18:57;13.50;99.90
3628;DHT22;1830;49.000;12.074;2023-05-16T12:21:25;13.70;99.90
3628;DHT22;1830;49.000;12.074;2023-05-16T12:23:54;13.60;99.90
3628;DHT22;1830;49.000;12.074;2023-05-16T12:26:24;13.70;99.90
3628;DHT22;1830;49.000;12.074;2023-05-16T12:28:53;13.70;99.90
3628;DHT22;1830;49.000;12.074;2023-05-16T12:31:21;13.80;99.90
3628;DHT22;1830;49.000;12.074;2023-05-16T12:33:52;13.60;99.90
3628;DHT22;1830;49.000;12.074;2023-05-16T12:36:19;13.70;99.90
3628;DHT22;1830;49.000;12.074;2023-05-16T12:38:47;13.70;99.90
3628;DHT22;1830;49.000;12.074;2023-05-16T12:41:17;13.80;99.90
3628;DHT22;1830;49.000;12.074;2023-05-16T12:43:44;13.80;99.90
3628;DHT22;1830;49.000;12.074;2023-05-16T12:46:11;13.80;99.90
3628;DHT22;1830;49.000;12.074;2023-05-16T12:48:39;13.80;99.90
3628;DHT22;1830;49.000;12.074;2023-05-16T12:51:11;13.80;99.90
3628;DHT22;1830;49.000;12.074;2023-05-16T12:53:43;13.80;99.90
3628;DHT22;1830;49.000;12.074;2023-05-16T12:56:13;13.80;99.90
3628;DHT22;1830;49.000;12.074;2023-05-16T12:58:40;13.80;99.90
3628;DHT22;1830;49.000;12.074;2023-05-16T13:01:08;13.80;99.90
3628;DHT22;1830;49.000;12.074;2023-05-16T13:03:35;13.80;99.90
3628;DHT22;1830;49.000;12.074;2023-05-16T13:06:02;13.80;99.90
3628;DHT22;1830;49.000;12.074;2023-05-16T13:08:30;13.90;99.90
3628;DHT22;1830;49.000;12.074;2023-05-16T13:10:57;13.80;99.90
3628;DHT22;1830;49.000;12.074;2023-05-16T13:13:25;13.80;99.90
3628;DHT22;1830;49.000;12.074;2023-05-16T13:15:52;13.80;99.90
3628;DHT22;1830;49.000;12.074;2023-05-16T13:18:19;13.80;99.90
3628;DHT22;1830;49.000;12.074;2023-05-16T13:20:46;13.90;99.90
3628;DHT22;1830;49.000;12.074;2023-05-16T13:23:12;13.90;99.90
3628;DHT22;1830;49.000;12.074;2023-05-16T13:25:39;13.90;99.90
3628;DHT22;1830;49.000;12.074;2023-05-16T13:28:06;13.90;99.90
3628;DHT22;1830;49.000;12.074;2023-05-16T13:30:34;14.00;99.90
3628;DHT22;1830;49.000;12.074;2023-05-16T13:33:01;14.10;99.90
3628;DHT22;1830;49.000;12.074;2023-05-16T13:35:28;14.10;99.90
3628;DHT22;1830;49.000;12.074;2023-05-16T13:37:55;14.10;99.90
3628;DHT22;1830;49.000;12.074;2023-05-16T13:40:22;14.00;99.90
3628;DHT22;1830;49.000;12.074;2023-05-16T13:42:49;14.10;99.90
3628;DHT22;1830;49.000;12.074;2023-05-16T13:45:16;14.00;99.90
3628;DHT22;1830;49.000;12.074;2023-05-16T13:47:44;13.90;99.90
3628;DHT22;1830;49.000;12.074;2023-05-16T13:50:11;13.90;99.90
3628;DHT22;1830;49.000;12.074;2023-05-16T13:52:38;13.80;99.90
3628;DHT22;1830;49.000;12.074;2023-05-16T13:55:06;13.90;99.90
3628;DHT22;1830;49.000;12.074;2023-05-16T13:57:34;13.90;99.90
3628;DHT22;1830;49.000;12.074;2023-05-16T14:00:01;13.90;99.90
3628;DHT22;1830;49.000;12.074;2023-05-16T14:02:29;13.90;99.90
3628;DHT22;1830;49.000;12.074;2023-05-16T14:04:57;13.90;99.90
3628;DHT22;1830;49.000;12.074;2023-05-16T14:07:24;13.90;99.90
3628;DHT22;1830;49.000;12.074;2023-05-16T14:09:51;13.90;99.90
3628;DHT22;1830;49.000;12.074;2023-05-16T14:12:18;13.90;99.90
3628;DHT22;1830;49.000;12.074;2023-05-16T14:14:44;13.90;99.90
3628;DHT22;1830;49.000;12.074;2023-05-16T14:17:11;13.90;99.90
3628;DHT22;1830;49.000;12.074;2023-05-16T14:19:38;13.80;99.90
3628;DHT22;1830;49.000;12.074;2023-05-16T14:22:06;13.80;99.90
3628;DHT22;1830;49.000;12.074;2023-05-16T14:24:33;13.80;99.90
3628;DHT22;1830;49.000;12.074;2023-05-16T14:27:00;13.70;99.90
3628;DHT22;1830;49.000;12.074;2023-05-16T14:29:27;13.80;99.90
3628;DHT22;1830;49.000;12.074;2023-05-16T14:31:54;13.80;99.90
3628;DHT22;1830;49.000;12.074;2023-05-16T14:34:21;13.70;99.90
3628;DHT22;1830;49.000;12.074;2023-05-16T14:36:48;13.70;99.90
3628;DHT22;1830;49.000;12.074;2023-05-16T14:39:16;13.70;99.90
3628;DHT22;1830;49.000;12.074;2023-05-16T14:41:43;13.80;99.90
3628;DHT22;1830;49.000;12.074;2023-05-16T14:44:10;13.80;99.90
3628;DHT22;1830;49.000;12.074;2023-05-16T14:46:37;13.80;99.90
3628;DHT22;1830;49.000;12.074;2023-05-16T14:49:03;13.70;99.90
3628;DHT22;1830;49.000;12.074;2023-05-16T14:51:30;13.70;99.90
3628;DHT22;1830;49.000;12.074;2023-05-16T14:53:57;13.60;99.90
3628;DHT22;1830;49.000;12.074;2023-05-16T14:56:26;13.40;99.90
3628;DHT22;1830;49.000;12.074;2023-05-16T14:58:53;13.50;99.90
3628;DHT22;1830;49.000;12.074;2023-05-16T15:01:20;13.40;99.90
3628;DHT22;1830;49.000;12.074;2023-05-16T15:03:47;13.50;99.90
3628;DHT22;1830;49.000;12.074;2023-05-16T15:06:13;13.40;99.90
3628;DHT22;1830;49.000;12.074;2023-05-16T15:08:40;13.40;99.90
3628;DHT22;1830;49.000;12.074;2023-05-16T15:11:07;13.50;99.90
3628;DHT22;1830;49.000;12.074;2023-05-16T15:13:35;13.50;99.90
3628;DHT22;1830;49.000;12.074;2023-05-16T15:16:02;13.50;99.90
3628;DHT22;1830;49.000;12.074;2023-05-16T15:18:29;13.50;99.90
3628;DHT22;1830;49.000;12.074;2023-05-16T15:20:56;13.50;99.90
3628;DHT22;1830;49.000;12.074;2023-05-16T15:23:28;13.50;99.90
3628;DHT22;1830;49.000;12.074;2023-05-16T15:26:00;13.70;99.90
3628;DHT22;1830;49.000;12.074;2023-05-16T15:28:27;13.80;99.90
3628;DHT22;1830;49.000;12.074;2023-05-16T15:30:55;13.80;99.90
3628;DHT22;1830;49.000;12.074;2023-05-16T15:33:22;13.90;99.90
3628;DHT22;1830;49.000;12.074;2023-05-16T15:35:49;13.90;99.90
3628;DHT22;1830;49.000;12.074;2023-05-16T15:38:16;14.10;99.90
3628;DHT22;1830;49.000;12.074;2023-05-16T15:40:43;14.00;99.90
3628;DHT22;1830;49.000;12.074;2023-05-16T15:43:10;14.10;99.90
3628;DHT22;1830;49.000;12.074;2023-05-16T15:45:37;14.00;99.90
3628;DHT22;1830;49.000;12.074;2023-05-16T15:48:05;14.00;99.90
3628;DHT22;1830;49.000;12.074;2023-05-16T15:50:32;14.10;99.90